Time;durP1;ratioP1;P1;durP2;ratioP2;P2;SDS_P1;SDS_P2;PMS_P1;PMS_P2;Temp;Humidity;BMP_temperature;BMP_pressure;BME280_temperature;BME280_humidity;BME280_pressure;Samples;Min_cycle;Max_cycle;Signal;HPM_P1;HPM_P2
2021/01/10 00:02:19;;;;;;;2.65;2.45;;;21.90;32.40;;;;;;5109030;28;20082;-62
2021/01/10 00:04:50;;;;;;;3.33;2.90;;;21.90;32.40;;;;;;5109117;28;20763;-61
2021/01/10 00:07:16;;;;;;;3.10;2.67;;;21.90;32.40;;;;;;5109170;28;20169;-61
2021/01/10 00:09:43;;;;;;;2.58;2.38;;;21.90;32.50;;;;;;5109649;28;20051;-61
2021/01/10 00:12:10;;;;;;;3.78;3.20;;;21.90;32.50;;;;;;5109093;28;20047;-61
2021/01/10 00:14:37;;;;;;;3.10;2.80;;;21.80;32.40;;;;;;5108054;28;20082;-61
2021/01/10 00:17:05;;;;;;;2.88;2.67;;;21.80;32.50;;;;;;5090598;28;20359;-61
2021/01/10 00:19:32;;;;;;;3.05;2.55;;;21.80;32.40;;;;;;5108661;28;20055;-61
2021/01/10 00:21:58;;;;;;;2.85;2.58;;;21.80;32.50;;;;;;5109359;28;20043;-61
2021/01/10 00:24:25;;;;;;;2.90;2.58;;;21.80;32.50;;;;;;5108576;28;20306;-61
2021/01/10 00:26:52;;;;;;;2.97;2.67;;;21.80;32.50;;;;;;5091347;28;20355;-62
2021/01/10 00:29:19;;;;;;;3.10;2.80;;;21.80;32.50;;;;;;5108755;28;20131;-61
2021/01/10 00:31:45;;;;;;;3.28;2.95;;;21.80;32.50;;;;;;5109266;28;20097;-61
2021/01/10 00:34:12;;;;;;;3.25;2.95;;;21.80;32.50;;;;;;5108517;28;20051;-61
2021/01/10 00:36:39;;;;;;;2.40;2.20;;;21.80;32.60;;;;;;5108759;28;20075;-61
2021/01/10 00:39:06;;;;;;;2.35;2.15;;;21.80;32.50;;;;;;5108457;28;20346;-61
2021/01/10 00:41:37;;;;;;;2.28;2.08;;;21.80;32.40;;;;;;5108773;28;20185;-61
2021/01/10 00:44:05;;;;;;;2.85;2.60;;;21.90;32.50;;;;;;5107908;28;20044;-64
2021/01/10 00:46:33;;;;;;;2.58;2.38;;;21.80;32.40;;;;;;5107813;28;20156;-61
2021/01/10 00:49:01;;;;;;;3.38;2.75;;;21.80;32.40;;;;;;5108193;28;20043;-61
2021/01/10 00:51:29;;;;;;;2.63;2.25;;;21.80;32.50;;;;;;5107764;28;20051;-62
2021/01/10 00:53:56;;;;;;;2.63;2.42;;;21.80;32.40;;;;;;5108530;28;20135;-61
2021/01/10 00:56:22;;;;;;;2.28;2.13;;;21.80;32.40;;;;;;5108498;28;20469;-61
2021/01/10 00:58:49;;;;;;;2.85;2.65;;;21.80;32.50;;;;;;5107996;28;20226;-61
2021/01/10 01:01:16;;;;;;;2.63;2.42;;;21.80;32.50;;;;;;5107944;28;20048;-61
2021/01/10 01:03:43;;;;;;;3.17;2.83;;;21.80;32.50;;;;;;5108315;28;20500;-61
2021/01/10 01:06:11;;;;;;;2.45;2.25;;;21.80;32.50;;;;;;5090255;28;20126;-61
2021/01/10 01:08:38;;;;;;;2.70;2.50;;;21.80;32.50;;;;;;5107864;28;20477;-61
2021/01/10 01:11:05;;;;;;;2.55;2.35;;;21.80;32.50;;;;;;5107939;28;20075;-61
2021/01/10 01:13:33;;;;;;;2.70;2.50;;;21.70;32.50;;;;;;5108333;28;20310;-61
2021/01/10 01:15:59;;;;;;;3.03;2.67;;;21.70;32.50;;;;;;5108312;28;20040;-61
2021/01/10 01:18:26;;;;;;;3.58;3.03;;;21.70;32.50;;;;;;5107842;28;20040;-61
2021/01/10 01:20:53;;;;;;;2.55;2.35;;;21.70;32.50;;;;;;5107035;28;20075;-61
2021/01/10 01:23:19;;;;;;;2.78;2.58;;;21.70;32.50;;;;;;5106879;28;20056;-61
2021/01/10 01:25:49;;;;;;;2.88;2.60;;;21.80;32.60;;;;;;5089790;28;20077;-62
2021/01/10 01:28:15;;;;;;;2.50;2.30;;;21.70;32.50;;;;;;5108040;28;20081;-61
2021/01/10 01:30:42;;;;;;;2.58;2.35;;;21.70;32.50;;;;;;5089960;28;20471;-62
2021/01/10 01:33:09;;;;;;;2.75;2.55;;;21.80;32.50;;;;;;5107073;28;20046;-61
2021/01/10 01:35:35;;;;;;;2.47;2.28;;;21.80;32.40;;;;;;5107659;28;20130;-61
2021/01/10 01:38:02;;;;;;;2.67;2.45;;;21.80;32.40;;;;;;5108222;28;20059;-65
2021/01/10 01:40:29;;;;;;;3.00;2.70;;;21.80;32.40;;;;;;5107423;28;20457;-62
2021/01/10 01:42:55;;;;;;;2.88;2.60;;;21.80;32.40;;;;;;5107809;28;20113;-61
2021/01/10 01:45:22;;;;;;;2.85;2.55;;;21.80;32.40;;;;;;5107457;28;20075;-61
2021/01/10 01:47:49;;;;;;;2.63;2.42;;;21.80;32.50;;;;;;5107392;28;20134;-61
2021/01/10 01:50:16;;;;;;;2.92;2.63;;;21.70;32.40;;;;;;5107667;28;20084;-61
2021/01/10 01:52:42;;;;;;;3.17;2.50;;;21.70;32.40;;;;;;5089898;28;20134;-61
2021/01/10 01:55:09;;;;;;;2.78;2.53;;;21.70;32.40;;;;;;5107360;28;20454;-61
2021/01/10 01:57:39;;;;;;;2.85;2.55;;;21.70;32.40;;;;;;5107754;28;20153;-61
2021/01/10 02:00:06;;;;;;;3.25;2.72;;;21.70;32.40;;;;;;5089590;28;20130;-61
2021/01/10 02:02:33;;;;;;;2.80;2.60;;;21.70;32.50;;;;;;5107840;28;20071;-61
2021/01/10 02:05:08;;;;;;;3.67;2.35;;;21.70;32.50;;;;;;5107144;28;20066;-61
2021/01/10 02:07:57;;;;;;;3.10;2.67;;;21.70;32.50;;;;;;5107619;28;20108;-61
2021/01/10 02:10:30;;;;;;;3.20;2.50;;;21.70;32.50;;;;;;5107124;28;20071;-61
2021/01/10 02:13:01;;;;;;;2.60;2.40;;;21.70;32.50;;;;;;5090133;28;20078;-61
2021/01/10 02:15:35;;;;;;;2.60;2.40;;;21.70;32.50;;;;;;5089086;28;20135;-61
2021/01/10 02:18:05;;;;;;;2.95;2.55;;;21.70;32.50;;;;;;5089197;28;20055;-61
2021/01/10 02:20:33;;;;;;;3.15;2.85;;;21.70;32.50;;;;;;5108584;28;20341;-61
2021/01/10 02:23:09;;;;;;;3.10;2.85;;;21.70;32.50;;;;;;5110757;28;20449;-61
2021/01/10 02:25:42;;;;;;;3.25;2.95;;;21.70;32.50;;;;;;5110765;28;20143;-61
2021/01/10 02:28:10;;;;;;;3.15;2.85;;;21.70;32.40;;;;;;5110394;28;20075;-61
2021/01/10 02:30:43;;;;;;;3.17;2.88;;;21.70;32.40;;;;;;5075945;28;20044;-61
2021/01/10 02:33:20;;;;;;;3.25;2.72;;;21.70;32.40;;;;;;5111637;28;20096;-61
2021/01/10 02:35:48;;;;;;;2.40;2.20;;;21.70;32.40;;;;;;5110693;28;20505;-61
2021/01/10 02:38:41;;;;;;;2.78;2.58;;;21.70;32.40;;;;;;5110413;28;20039;-61
2021/01/10 02:41:43;;;;;;;2.88;2.67;;;21.70;32.40;;;;;;5110809;28;20476;-61
2021/01/10 02:44:27;;;;;;;2.85;2.47;;;21.70;32.40;;;;;;5110932;28;20134;-62
2021/01/10 02:46:55;;;;;;;3.15;2.63;;;21.70;32.40;;;;;;5110349;28;20056;-61
2021/01/10 02:49:23;;;;;;;2.97;2.70;;;21.70;32.40;;;;;;5111332;28;20497;-61
2021/01/10 02:51:50;;;;;;;3.30;3.00;;;21.60;32.40;;;;;;5110536;28;20446;-61
2021/01/10 02:54:18;;;;;;;3.03;2.70;;;21.70;32.50;;;;;;5110235;28;20085;-61
2021/01/10 02:56:57;;;;;;;3.08;2.33;;;21.70;32.50;;;;;;5110888;28;20087;-62
2021/01/10 02:59:26;;;;;;;3.08;2.55;;;21.60;32.40;;;;;;5110142;28;20138;-61
2021/01/10 03:01:58;;;;;;;2.85;2.58;;;21.60;32.50;;;;;;5093070;28;20075;-61
2021/01/10 03:04:25;;;;;;;2.60;2.40;;;21.60;32.50;;;;;;5110024;28;20669;-61
2021/01/10 03:06:54;;;;;;;2.90;2.70;;;21.60;32.50;;;;;;5109604;28;20071;-61
2021/01/10 03:09:22;;;;;;;2.80;2.60;;;21.60;32.50;;;;;;5110492;28;20051;-61
2021/01/10 03:11:49;;;;;;;3.72;3.03;;;21.60;32.50;;;;;;5110311;28;20036;-61
2021/01/10 03:14:16;;;;;;;2.47;2.28;;;21.60;32.50;;;;;;5110218;28;20044;-62
2021/01/10 03:16:43;;;;;;;2.67;2.47;;;21.60;32.50;;;;;;5109786;28;20047;-61
2021/01/10 03:19:10;;;;;;;3.10;2.53;;;21.60;32.40;;;;;;5109911;28;20135;-61
2021/01/10 03:21:37;;;;;;;2.47;2.28;;;21.70;32.50;;;;;;5110325;28;20075;-62
2021/01/10 03:24:04;;;;;;;2.85;2.63;;;21.60;32.40;;;;;;5109562;28;20105;-61
2021/01/10 03:26:31;;;;;;;3.13;2.67;;;21.70;32.40;;;;;;5109776;28;20319;-65
2021/01/10 03:28:57;;;;;;;3.42;3.08;;;21.70;32.40;;;;;;5110260;28;20055;-61
2021/01/10 03:31:24;;;;;;;2.90;2.70;;;21.70;32.40;;;;;;5091223;28;20039;-61
2021/01/10 03:33:51;;;;;;;2.50;2.30;;;21.60;32.40;;;;;;5109582;28;20136;-61
2021/01/10 03:36:18;;;;;;;3.65;2.72;;;21.70;32.40;;;;;;5109881;28;20469;-61
2021/01/10 03:38:44;;;;;;;2.67;2.30;;;21.60;32.30;;;;;;5109853;28;20039;-61
2021/01/10 03:41:11;;;;;;;2.97;2.50;;;21.60;32.40;;;;;;5109324;28;20071;-61
2021/01/10 03:43:38;;;;;;;2.65;2.45;;;21.60;32.40;;;;;;5109454;28;20075;-61
2021/01/10 03:46:05;;;;;;;2.88;2.58;;;21.60;32.40;;;;;;5109623;28;20500;-61
2021/01/10 03:48:36;;;;;;;2.75;2.55;;;21.60;32.40;;;;;;5109267;28;20082;-61
2021/01/10 03:51:03;;;;;;;2.55;2.35;;;21.60;32.40;;;;;;5110014;28;20097;-61
2021/01/10 03:53:34;;;;;;;2.75;2.55;;;21.60;32.50;;;;;;5109279;28;20073;-61
2021/01/10 03:56:02;;;;;;;2.45;2.25;;;21.60;32.40;;;;;;5091423;28;20078;-61
2021/01/10 03:58:29;;;;;;;3.35;2.70;;;21.60;32.40;;;;;;5109079;28;20071;-61
2021/01/10 04:00:55;;;;;;;2.70;2.50;;;21.60;32.50;;;;;;5108450;28;20139;-61
2021/01/10 04:03:22;;;;;;;2.45;2.25;;;21.60;32.40;;;;;;5090884;28;20078;-61
2021/01/10 04:05:49;;;;;;;2.70;2.38;;;21.60;32.40;;;;;;5108268;28;20646;-61
2021/01/10 04:08:15;;;;;;;3.20;2.90;;;21.60;32.40;;;;;;5109007;28;20134;-61
2021/01/10 04:10:42;;;;;;;3.13;2.83;;;21.60;32.40;;;;;;5091082;28;20078;-61
2021/01/10 04:13:09;;;;;;;3.40;3.05;;;21.60;32.40;;;;;;5108894;28;20317;-60
2021/01/10 04:15:35;;;;;;;2.38;2.17;;;21.60;32.40;;;;;;5109663;28;20507;-61
2021/01/10 04:18:03;;;;;;;2.25;2.05;;;21.60;32.40;;;;;;5074151;28;20048;-61
2021/01/10 04:20:29;;;;;;;2.35;2.15;;;21.60;32.40;;;;;;5109341;28;20086;-64
2021/01/10 04:22:56;;;;;;;2.60;2.40;;;21.60;32.40;;;;;;5110049;28;20039;-61
2021/01/10 04:25:23;;;;;;;2.60;2.40;;;21.60;32.40;;;;;;5114394;28;20082;-61
2021/01/10 04:27:49;;;;;;;2.60;2.40;;;21.60;32.40;;;;;;5112374;28;20107;-61
2021/01/10 04:30:16;;;;;;;2.25;2.05;;;21.60;32.40;;;;;;5111772;28;20100;-61
2021/01/10 04:32:43;;;;;;;3.45;2.30;;;21.60;32.40;;;;;;5112427;28;20071;-61
2021/01/10 04:35:10;;;;;;;2.60;2.40;;;21.60;32.40;;;;;;5112606;28;20154;-61
2021/01/10 04:37:38;;;;;;;2.53;2.33;;;21.60;32.40;;;;;;5112304;28;20093;-61
2021/01/10 04:40:05;;;;;;;2.17;2.05;;;21.60;32.40;;;;;;5112887;28;20097;-61
2021/01/10 04:42:34;;;;;;;2.65;2.45;;;21.50;32.40;;;;;;5108066;28;20040;-61
2021/01/10 04:45:01;;;;;;;2.47;2.27;;;21.50;32.40;;;;;;5106672;28;20051;-61
2021/01/10 04:47:28;;;;;;;2.40;2.20;;;21.50;32.40;;;;;;5107769;28;20064;-61
2021/01/10 04:49:57;;;;;;;2.45;2.25;;;21.50;32.40;;;;;;5107510;28;20052;-61
2021/01/10 04:52:26;;;;;;;3.40;2.90;;;21.50;32.40;;;;;;5108020;28;20046;-61
2021/01/10 04:54:56;;;;;;;2.33;2.13;;;21.50;32.40;;;;;;5108163;28;20071;-61
2021/01/10 04:57:26;;;;;;;2.38;2.13;;;21.50;32.40;;;;;;5090710;28;20063;-61
2021/01/10 04:59:54;;;;;;;;;;;21.50;32.40;;;;;;5107363;28;20100;-61
2021/01/10 05:02:26;;;;;;;2.38;2.17;;;21.50;32.40;;;;;;5108015;28;20246;-61
2021/01/10 05:04:54;;;;;;;2.58;2.38;;;21.50;32.40;;;;;;5090427;28;20531;-61
2021/01/10 05:07:21;;;;;;;2.70;2.50;;;21.50;32.30;;;;;;5108089;28;20071;-61
2021/01/10 05:09:47;;;;;;;2.50;2.30;;;21.50;32.30;;;;;;5107726;28;20454;-61
2021/01/10 05:12:15;;;;;;;2.80;2.53;;;21.50;32.30;;;;;;5108080;28;20051;-61
2021/01/10 05:14:42;;;;;;;2.35;2.13;;;21.50;32.30;;;;;;5108084;28;20127;-64
2021/01/10 05:17:20;;;;;;;2.72;2.53;;;21.50;32.30;;;;;;5108032;28;20138;-61
2021/01/10 05:19:49;;;;;;;2.55;2.35;;;21.50;32.30;;;;;;5106508;28;20059;-61
2021/01/10 05:22:16;;;;;;;2.47;2.28;;;21.50;32.40;;;;;;5108694;28;20107;-61
2021/01/10 05:24:43;;;;;;;2.28;2.08;;;21.50;32.30;;;;;;5107671;28;20054;-61
2021/01/10 05:27:10;;;;;;;2.60;2.40;;;21.50;32.30;;;;;;5108272;28;20040;-61
2021/01/10 05:29:37;;;;;;;2.13;1.98;;;21.50;32.30;;;;;;5107422;28;20519;-61
2021/01/10 05:32:05;;;;;;;2.67;2.20;;;21.50;32.30;;;;;;5107969;28;20111;-61
2021/01/10 05:34:32;;;;;;;2.45;2.20;;;21.50;32.40;;;;;;5107358;28;20048;-61
2021/01/10 05:37:12;;;;;;;2.95;2.63;;;21.50;32.40;;;;;;5107986;28;20312;-61
2021/01/10 05:39:44;;;;;;;2.50;2.00;;;21.50;32.40;;;;;;5089344;28;20039;-61
2021/01/10 05:42:13;;;;;;;2.40;2.20;;;21.50;32.40;;;;;;5107420;28;20082;-61
2021/01/10 05:44:49;;;;;;;2.30;2.10;;;21.50;32.40;;;;;;5107318;28;20235;-61
2021/01/10 05:47:18;;;;;;;2.45;2.25;;;21.50;32.40;;;;;;5107697;28;20044;-61
2021/01/10 05:49:53;;;;;;;2.63;2.42;;;21.50;32.40;;;;;;5108085;28;20048;-61
2021/01/10 05:52:22;;;;;;;2.70;2.50;;;21.50;32.40;;;;;;5090594;28;20483;-61
2021/01/10 05:54:53;;;;;;;1.95;1.85;;;21.50;32.40;;;;;;5107474;28;20424;-61
2021/01/10 05:57:27;;;;;;;;;;;21.50;32.30;;;;;;5112345;28;20043;-61
2021/01/10 05:59:55;;;;;;;2.30;2.10;;;21.50;32.30;;;;;;5111704;28;20173;-61
2021/01/10 06:02:35;;;;;;;2.20;2.10;;;21.50;32.30;;;;;;5111757;28;20078;-61
2021/01/10 06:05:17;;;;;;;2.45;2.22;;;21.50;32.30;;;;;;5111234;28;20484;-60
2021/01/10 06:07:46;;;;;;;2.85;2.65;;;21.50;32.30;;;;;;5111714;28;20427;-61
2021/01/10 06:10:23;;;;;;;2.70;2.50;;;21.50;32.20;;;;;;5111256;28;20557;-61
2021/01/10 06:13:07;;;;;;;2.78;2.58;;;21.50;32.10;;;;;;5111457;28;20051;-61
2021/01/10 06:15:35;;;;;;;2.85;2.60;;;21.50;32.00;;;;;;5094797;28;20040;-62
2021/01/10 06:18:04;;;;;;;3.15;2.85;;;21.40;32.00;;;;;;5091921;28;20513;-61
2021/01/10 06:20:33;;;;;;;3.35;2.97;;;21.40;31.90;;;;;;5094590;28;20469;-62
2021/01/10 06:23:04;;;;;;;3.90;3.10;;;21.40;31.90;;;;;;5111240;28;20068;-62
2021/01/10 06:25:35;;;;;;;3.58;3.13;;;21.40;31.80;;;;;;5097952;28;20066;-61
2021/01/10 06:28:07;;;;;;;3.15;2.78;;;21.40;31.70;;;;;;5089615;28;20374;-61
2021/01/10 06:30:36;;;;;;;3.30;3.00;;;21.50;31.70;;;;;;5108067;28;20428;-61
2021/01/10 06:33:11;;;;;;;3.47;3.17;;;21.50;31.70;;;;;;5111461;28;20146;-61
2021/01/10 06:35:40;;;;;;;3.22;3.03;;;21.60;31.60;;;;;;5111086;28;20044;-61
2021/01/10 06:38:10;;;;;;;3.53;3.22;;;21.60;31.50;;;;;;5111274;28;20048;-61
2021/01/10 06:40:39;;;;;;;3.70;3.38;;;21.60;31.40;;;;;;5092950;28;20348;-61
2021/01/10 06:43:08;;;;;;;3.65;3.35;;;21.60;31.30;;;;;;5111129;28;20492;-61
2021/01/10 06:45:40;;;;;;;3.60;3.30;;;21.70;31.20;;;;;;5110451;28;20093;-61
2021/01/10 06:48:09;;;;;;;4.95;3.60;;;21.80;31.20;;;;;;5110247;28;20465;-62
2021/01/10 06:50:36;;;;;;;3.05;2.80;;;21.80;31.10;;;;;;5110020;28;20223;-61
2021/01/10 06:53:08;;;;;;;4.55;3.83;;;21.90;31.00;;;;;;5110525;28;20096;-61
2021/01/10 06:55:37;;;;;;;4.20;3.78;;;21.90;31.00;;;;;;5110424;28;20047;-61
2021/01/10 06:58:11;;;;;;;4.72;3.40;;;22.00;31.50;;;;;;5111230;28;20460;-61
2021/01/10 07:00:56;;;;;;;4.40;3.85;;;22.00;30.80;;;;;;5092335;28;20612;-61
2021/01/10 07:03:27;;;;;;;3.50;3.20;;;22.10;30.90;;;;;;5109806;28;20123;-61
2021/01/10 07:06:08;;;;;;;4.07;3.78;;;22.20;30.80;;;;;;5110323;28;20047;-61
2021/01/10 07:08:52;;;;;;;6.00;4.40;;;22.20;30.70;;;;;;5109816;28;20484;-61
2021/01/10 07:11:31;;;;;;;4.68;4.10;;;22.30;30.60;;;;;;5110098;28;20055;-61
2021/01/10 07:14:24;;;;;;;4.93;4.50;;;22.40;30.60;;;;;;5110572;28;20515;-61
2021/01/10 07:17:09;;;;;;;6.05;4.18;;;22.40;30.50;;;;;;5095908;28;20063;-61
2021/01/10 07:19:41;;;;;;;4.72;4.07;;;22.50;30.40;;;;;;5110032;28;20079;-61
2021/01/10 07:22:25;;;;;;;4.68;4.20;;;22.50;30.30;;;;;;5110100;28;20075;-61
2021/01/10 07:24:52;;;;;;;4.47;4.07;;;22.60;30.20;;;;;;5110792;28;20063;-64
2021/01/10 07:27:31;;;;;;;4.15;3.78;;;22.60;30.20;;;;;;5109924;28;20056;-61
2021/01/10 07:30:18;;;;;;;4.97;4.57;;;22.70;30.10;;;;;;5110289;28;20139;-62
2021/01/10 07:32:45;;;;;;;5.20;4.70;;;22.70;30.00;;;;;;5109862;28;20043;-61
2021/01/10 07:35:12;;;;;;;4.60;4.20;;;22.80;30.00;;;;;;5109747;28;20044;-62
2021/01/10 07:37:39;;;;;;;4.97;4.47;;;22.80;30.00;;;;;;5110217;28;20075;-61
2021/01/10 07:40:09;;;;;;;4.97;4.47;;;22.90;30.00;;;;;;5110011;28;20128;-61
2021/01/10 07:42:37;;;;;;;5.70;4.75;;;22.90;29.90;;;;;;5109503;28;20148;-61
2021/01/10 07:45:20;;;;;;;5.38;4.88;;;23.00;29.90;;;;;;5109914;28;20485;-62
2021/01/10 07:47:48;;;;;;;5.68;5.07;;;23.00;29.80;;;;;;5108923;28;20051;-61
2021/01/10 07:50:25;;;;;;;4.85;4.43;;;23.10;29.80;;;;;;5109764;28;20044;-61
2021/01/10 07:52:55;;;;;;;5.28;4.78;;;23.10;29.70;;;;;;5109410;28;20401;-61
2021/01/10 07:55:23;;;;;;;5.30;4.80;;;23.10;29.70;;;;;;5109750;28;20191;-61
2021/01/10 07:58:11;;;;;;;5.60;4.95;;;23.20;29.70;;;;;;5092001;28;20071;-61
2021/01/10 08:00:50;;;;;;;5.90;5.30;;;23.20;29.60;;;;;;5094133;28;20081;-61
2021/01/10 08:03:27;;;;;;;4.90;4.40;;;23.30;29.60;;;;;;5109695;28;20054;-61
2021/01/10 08:06:04;;;;;;;5.75;5.20;;;23.30;29.50;;;;;;5108641;28;20044;-61
2021/01/10 08:08:41;;;;;;;5.63;5.10;;;23.40;29.50;;;;;;5109556;28;20118;-61
2021/01/10 08:11:08;;;;;;;5.60;5.00;;;23.30;29.40;;;;;;5109400;28;20126;-62
2021/01/10 08:13:40;;;;;;;5.43;4.93;;;23.40;29.40;;;;;;5109656;28;20078;-61
2021/01/10 08:16:12;;;;;;;5.30;4.90;;;23.50;29.40;;;;;;5109135;28;20192;-61
2021/01/10 08:18:46;;;;;;;5.88;5.28;;;23.50;29.30;;;;;;5108684;28;20039;-61
2021/01/10 08:21:15;;;;;;;5.22;4.72;;;23.50;29.20;;;;;;5109570;28;20679;-61
2021/01/10 08:23:44;;;;;;;5.85;5.32;;;23.50;29.10;;;;;;5109300;28;20043;-61
2021/01/10 08:26:18;;;;;;;5.85;5.25;;;23.50;29.10;;;;;;5108789;28;20138;-61
2021/01/10 08:28:48;;;;;;;5.30;4.80;;;23.50;29.10;;;;;;5109015;28;20040;-62
2021/01/10 08:31:19;;;;;;;5.63;5.13;;;23.50;29.10;;;;;;5108750;28;20044;-61
2021/01/10 08:33:48;;;;;;;5.47;4.97;;;23.40;29.10;;;;;;5109231;28;20404;-60
2021/01/10 08:36:21;;;;;;;6.00;5.50;;;23.40;29.20;;;;;;5090893;28;20104;-61
2021/01/10 08:39:04;;;;;;;6.05;5.55;;;23.40;29.30;;;;;;5108998;28;20059;-61
2021/01/10 08:41:33;;;;;;;6.68;5.97;;;23.30;29.20;;;;;;5090384;28;20112;-61
2021/01/10 08:44:02;;;;;;;;;;;23.20;29.20;;;;;;5108488;28;20039;-61
2021/01/10 08:46:33;;;;;;;6.75;5.80;;;23.20;29.30;;;;;;5108377;28;20357;-61
2021/01/10 08:49:00;;;;;;;8.07;6.00;;;23.20;29.30;;;;;;5108561;28;20040;-61
2021/01/10 08:51:35;;;;;;;6.13;5.63;;;23.10;29.30;;;;;;5108570;28;20051;-62
2021/01/10 08:54:09;;;;;;;6.63;6.03;;;23.10;29.30;;;;;;5108296;28;20105;-61
2021/01/10 08:56:38;;;;;;;7.22;6.10;;;23.10;29.40;;;;;;5107986;28;20092;-62
2021/01/10 08:59:06;;;;;;;6.72;6.13;;;23.10;29.40;;;;;;5108930;28;20048;-61
2021/01/10 09:01:33;;;;;;;6.38;5.78;;;23.00;29.40;;;;;;5108461;28;20678;-61
2021/01/10 09:04:06;;;;;;;6.68;6.03;;;23.00;29.40;;;;;;5108442;28;20051;-61
2021/01/10 09:07:01;;;;;;;7.63;6.93;;;23.00;29.50;;;;;;5108043;28;20070;-61
2021/01/10 09:09:50;;;;;;;7.03;6.32;;;23.00;29.50;;;;;;5108496;28;20212;-65
2021/01/10 09:12:47;;;;;;;7.65;6.18;;;23.00;29.50;;;;;;5093253;28;20101;-61
2021/01/10 09:15:33;;;;;;;6.85;6.15;;;23.00;29.50;;;;;;5108360;28;20067;-61
2021/01/10 09:18:17;;;;;;;7.07;6.38;;;23.00;29.50;;;;;;5108073;28;20043;-61
2021/01/10 09:21:05;;;;;;;7.35;6.70;;;23.10;29.50;;;;;;5107253;28;20552;-61
2021/01/10 09:23:33;;;;;;;6.45;5.85;;;23.10;29.40;;;;;;5089279;28;20043;-61
2021/01/10 09:25:59;;;;;;;6.88;6.10;;;23.10;29.40;;;;;;5106970;28;20074;-61
2021/01/10 09:28:32;;;;;;;7.03;6.38;;;23.10;29.40;;;;;;5107515;28;20477;-61
2021/01/10 09:30:59;;;;;;;7.90;7.10;;;23.10;29.40;;;;;;5107275;28;20052;-61
2021/01/10 09:33:29;;;;;;;8.10;6.95;;;23.10;29.40;;;;;;5107313;28;20092;-61
2021/01/10 09:35:57;;;;;;;7.53;6.77;;;23.10;29.40;;;;;;5107733;28;20073;-62
2021/01/10 09:38:28;;;;;;;8.07;7.28;;;23.10;29.40;;;;;;5100030;28;20040;-61
2021/01/10 09:41:07;;;;;;;7.70;6.97;;;23.10;29.30;;;;;;5088213;28;20101;-61
2021/01/10 09:43:38;;;;;;;7.53;6.80;;;23.20;29.40;;;;;;5098038;28;20040;-61
2021/01/10 09:46:22;;;;;;;8.93;7.47;;;23.20;29.40;;;;;;5101132;28;20710;-61
2021/01/10 09:48:58;;;;;;;7.93;7.13;;;23.20;29.30;;;;;;5101775;28;20044;-61
2021/01/10 09:51:42;;;;;;;8.65;7.80;;;23.20;29.30;;;;;;5095206;28;20051;-61
2021/01/10 09:54:11;;;;;;;8.40;7.60;;;23.20;29.30;;;;;;5083115;28;20163;-62
2021/01/10 09:56:53;;;;;;;7.57;6.88;;;23.20;29.30;;;;;;5102560;28;20479;-61
2021/01/10 09:59:44;;;;;;;8.35;7.55;;;23.20;29.30;;;;;;5098830;28;20086;-61
2021/01/10 10:02:18;;;;;;;7.47;6.75;;;23.20;29.30;;;;;;5096110;28;20123;-61
2021/01/10 10:04:48;;;;;;;7.85;7.05;;;23.20;29.30;;;;;;5103288;28;20055;-61
2021/01/10 10:07:36;;;;;;;7.63;6.90;;;23.20;29.30;;;;;;5107434;28;20097;-61
2021/01/10 10:10:18;;;;;;;9.63;7.45;;;23.20;29.30;;;;;;5107611;28;20071;-62
2021/01/10 10:13:00;;;;;;;7.63;6.88;;;23.20;29.30;;;;;;5102221;28;20071;-61
2021/01/10 10:15:42;;;;;;;8.20;7.40;;;23.20;29.20;;;;;;5097808;28;20093;-61
2021/01/10 10:18:17;;;;;;;8.98;8.05;;;23.30;29.30;;;;;;5089658;28;20082;-61
2021/01/10 10:20:44;;;;;;;7.78;7.07;;;23.20;29.30;;;;;;5107557;28;20052;-61
2021/01/10 10:23:13;;;;;;;7.60;6.90;;;23.20;29.30;;;;;;5107566;28;20040;-61
2021/01/10 10:25:41;;;;;;;8.68;7.88;;;23.20;29.30;;;;;;5107295;28;20577;-61
2021/01/10 10:28:08;;;;;;;8.15;7.35;;;23.20;29.30;;;;;;5107494;28;20120;-62
2021/01/10 10:30:35;;;;;;;8.32;7.38;;;23.20;29.30;;;;;;5107428;28;20111;-61
2021/01/10 10:33:04;;;;;;;7.93;7.18;;;23.10;29.30;;;;;;5107380;28;20071;-61
2021/01/10 10:35:31;;;;;;;9.00;7.97;;;23.10;29.30;;;;;;5107133;28;20075;-61
2021/01/10 10:37:57;;;;;;;9.00;8.15;;;23.20;29.40;;;;;;5107872;28;20666;-62
2021/01/10 10:40:24;;;;;;;8.70;7.80;;;23.20;29.30;;;;;;5106848;28;20075;-61
2021/01/10 10:42:51;;;;;;;9.77;8.25;;;23.20;29.30;;;;;;5107377;28;20071;-61
2021/01/10 10:45:18;;;;;;;9.43;8.48;;;23.20;29.30;;;;;;5096785;28;20043;-62
2021/01/10 10:47:45;;;;;;;8.23;7.40;;;23.20;29.30;;;;;;5083942;28;21441;-61
2021/01/10 10:50:12;;;;;;;8.85;8.02;;;23.20;29.30;;;;;;5103475;28;20097;-61
2021/01/10 10:52:41;;;;;;;8.65;7.72;;;23.20;29.30;;;;;;5090012;28;20135;-61
2021/01/10 10:55:11;;;;;;;8.95;8.07;;;23.10;29.30;;;;;;5090332;28;20117;-61
2021/01/10 10:57:41;;;;;;;8.85;7.95;;;23.20;29.30;;;;;;5090399;28;20052;-65
2021/01/10 11:00:09;;;;;;;8.15;7.35;;;23.20;29.30;;;;;;5090177;28;20048;-61
2021/01/10 11:02:35;;;;;;;9.07;8.15;;;23.10;29.20;;;;;;5090390;28;20054;-61
2021/01/10 11:05:03;;;;;;;9.95;8.40;;;23.20;29.30;;;;;;5089540;28;20558;-61
2021/01/10 11:07:33;;;;;;;8.82;7.93;;;23.20;29.30;;;;;;5090298;28;20463;-61
2021/01/10 11:10:00;;;;;;;9.40;8.50;;;23.20;29.20;;;;;;5089677;28;20048;-61
2021/01/10 11:12:26;;;;;;;9.25;8.15;;;23.20;29.30;;;;;;5090227;28;20044;-61
2021/01/10 11:14:54;;;;;;;9.45;8.18;;;23.20;29.70;;;;;;5072260;28;20493;-61
2021/01/10 11:17:20;;;;;;;9.07;8.05;;;23.20;29.30;;;;;;5089997;28;20499;-61
2021/01/10 11:19:48;;;;;;;9.80;8.13;;;23.20;29.30;;;;;;5089550;28;20048;-61
2021/01/10 11:22:15;;;;;;;8.75;7.85;;;23.20;29.30;;;;;;5089791;28;20117;-61
2021/01/10 11:24:42;;;;;;;9.25;8.18;;;23.20;29.30;;;;;;5089797;28;20086;-61
2021/01/10 11:27:10;;;;;;;8.65;7.60;;;23.20;29.30;;;;;;5089501;28;20040;-61
2021/01/10 11:29:38;;;;;;;9.77;8.75;;;23.10;29.20;;;;;;5089548;28;20267;-61
2021/01/10 11:32:05;;;;;;;8.38;7.63;;;23.10;29.20;;;;;;5089228;28;20083;-61
2021/01/10 11:34:32;;;;;;;8.25;7.45;;;23.10;29.20;;;;;;5089413;28;20050;-61
2021/01/10 11:36:59;;;;;;;9.02;8.13;;;23.10;29.20;;;;;;5071273;28;20469;-61
2021/01/10 11:39:25;;;;;;;10.18;8.13;;;23.10;29.20;;;;;;5071696;28;20074;-61
2021/01/10 11:41:54;;;;;;;8.93;8.02;;;23.10;29.20;;;;;;5089177;28;20051;-61
2021/01/10 11:44:23;;;;;;;8.95;8.05;;;23.10;29.20;;;;;;5088941;28;20071;-61
2021/01/10 11:46:52;;;;;;;10.57;8.63;;;23.10;29.20;;;;;;5088151;28;20087;-61
2021/01/10 11:49:20;;;;;;;9.15;8.20;;;23.10;29.20;;;;;;5088812;28;20162;-61
2021/01/10 11:51:47;;;;;;;9.45;8.13;;;23.10;29.20;;;;;;5089394;28;20163;-61
2021/01/10 11:54:15;;;;;;;9.18;8.27;;;23.10;29.20;;;;;;5088947;28;20071;-61
2021/01/10 11:56:43;;;;;;;8.80;7.93;;;23.10;29.20;;;;;;5089071;28;20048;-61
2021/01/10 11:59:14;;;;;;;9.77;8.77;;;23.20;29.20;;;;;;5089001;28;20098;-61
2021/01/10 12:01:42;;;;;;;9.50;8.45;;;23.20;29.20;;;;;;5088809;28;20481;-61
2021/01/10 12:04:09;;;;;;;9.65;8.65;;;23.20;29.20;;;;;;5070780;28;20048;-61
2021/01/10 12:06:39;;;;;;;11.20;8.40;;;23.20;29.20;;;;;;5088829;28;20047;-61
2021/01/10 12:09:09;;;;;;;9.40;7.88;;;23.20;29.20;;;;;;5093374;28;20080;-61
2021/01/10 12:11:37;;;;;;;9.05;8.15;;;23.10;29.10;;;;;;5074782;28;20499;-61
2021/01/10 12:14:04;;;;;;;9.70;8.23;;;23.20;29.20;;;;;;5091213;28;20140;-61
2021/01/10 12:16:30;;;;;;;9.55;8.55;;;23.10;29.20;;;;;;5091804;28;20669;-61
2021/01/10 12:18:57;;;;;;;10.60;9.50;;;23.10;29.20;;;;;;5092580;28;20098;-61
2021/01/10 12:21:24;;;;;;;9.75;8.30;;;23.10;29.20;;;;;;5093147;28;20505;-61
2021/01/10 12:23:51;;;;;;;9.57;8.10;;;23.10;29.20;;;;;;5070600;28;20044;-61
2021/01/10 12:26:18;;;;;;;10.15;8.93;;;23.10;29.20;;;;;;5088240;28;20138;-61
2021/01/10 12:28:45;;;;;;;9.73;8.73;;;23.10;29.20;;;;;;5088736;28;20074;-61
2021/01/10 12:31:13;;;;;;;10.68;8.93;;;23.10;29.10;;;;;;5088567;28;20126;-61
2021/01/10 12:33:40;;;;;;;9.23;8.15;;;23.10;29.20;;;;;;5088592;28;20054;-61
2021/01/10 12:36:09;;;;;;;10.57;9.48;;;23.10;29.20;;;;;;5088257;28;20434;-61
2021/01/10 12:38:41;;;;;;;11.88;9.65;;;23.10;29.20;;;;;;5070452;28;20079;-61
2021/01/10 12:41:09;;;;;;;9.65;8.25;;;23.10;29.20;;;;;;5087730;28;20109;-62
2021/01/10 12:43:36;;;;;;;10.38;8.55;;;23.10;29.10;;;;;;5088313;28;20044;-62
2021/01/10 12:46:03;;;;;;;10.27;8.75;;;23.10;29.10;;;;;;5088398;28;20237;-65
2021/01/10 12:48:30;;;;;;;10.25;9.23;;;23.10;29.10;;;;;;5088183;28;20507;-61
2021/01/10 12:50:57;;;;;;;10.38;8.77;;;23.10;29.10;;;;;;5087641;28;20059;-61
2021/01/10 12:53:23;;;;;;;10.20;8.88;;;23.10;29.10;;;;;;5088777;28;20709;-60
2021/01/10 12:55:54;;;;;;;11.18;9.00;;;23.20;29.10;;;;;;5088353;28;20052;-61
2021/01/10 12:58:21;;;;;;;10.77;9.35;;;23.10;29.00;;;;;;5088384;28;20081;-61
2021/01/10 13:00:49;;;;;;;11.40;9.35;;;23.20;29.10;;;;;;5088532;28;20044;-61
2021/01/10 13:03:16;;;;;;;10.65;8.65;;;23.10;29.10;;;;;;5087954;28;20119;-61
2021/01/10 13:05:43;;;;;;;10.57;9.25;;;23.10;29.10;;;;;;5087104;28;20139;-61